createdAt,value
2019-01-11T00:08:20.135Z,10.37
2019-01-11T00:18:24.310Z,9.33
2019-01-11T00:28:27.954Z,10.40
2019-01-11T00:38:31.599Z,8.00
2019-01-11T00:48:35.430Z,9.93
2019-01-11T00:58:39.170Z,10.00
2019-01-11T01:08:42.823Z,9.27
2019-01-11T01:18:46.423Z,8.07
2019-01-11T01:28:50.210Z,7.47
2019-01-11T01:38:54.026Z,6.77
2019-01-11T01:48:57.622Z,8.73
2019-01-11T01:59:01.241Z,7.97
2019-01-11T02:09:08.142Z,8.63
2019-01-11T02:19:11.755Z,6.90
2019-01-11T02:29:15.339Z,6.03
2019-01-11T02:39:18.923Z,6.00
2019-01-11T02:49:22.515Z,4.57
2019-01-11T02:59:26.119Z,5.30
2019-01-11T03:09:29.707Z,4.97
2019-01-11T03:19:33.282Z,5.27
2019-01-11T03:29:36.947Z,5.33
2019-01-11T03:39:40.530Z,5.70
2019-01-11T03:49:44.114Z,7.43
2019-01-11T03:59:47.719Z,5.40
2019-01-11T04:09:51.314Z,5.23
2019-01-11T04:20:01.735Z,7.27
2019-01-11T04:30:00.539Z,5.37
2019-01-11T04:40:11.556Z,4.80
2019-01-11T04:50:17.483Z,6.30
2019-01-11T05:00:22.467Z,4.03
2019-01-11T05:10:26.070Z,5.53
2019-01-11T05:20:30.462Z,6.90
2019-01-11T05:30:34.067Z,4.90
2019-01-11T05:40:37.663Z,6.50
2019-01-11T05:50:41.243Z,5.33
2019-01-11T06:00:44.847Z,4.30
2019-01-11T06:10:48.446Z,7.10
2019-01-11T06:20:52.403Z,5.57
2019-01-11T06:30:55.986Z,6.07
2019-01-11T06:40:59.585Z,6.10
2019-01-11T06:51:03.166Z,6.47
2019-01-11T07:01:06.762Z,5.40
2019-01-11T07:11:10.342Z,5.90
2019-01-11T07:21:13.936Z,5.40
2019-01-11T07:31:21.474Z,5.37
2019-01-11T07:41:25.158Z,4.20
2019-01-11T07:51:28.723Z,3.77
2019-01-11T08:01:35.526Z,4.50
2019-01-11T08:11:39.111Z,3.43
2019-01-11T08:21:42.932Z,3.47
2019-01-11T08:31:46.515Z,2.17
2019-01-11T08:41:50.090Z,2.60
2019-01-11T08:51:53.663Z,1.50
2019-01-11T09:01:57.486Z,1.00
2019-01-11T09:12:01.061Z,1.10
2019-01-11T09:22:04.666Z,0.90
2019-01-11T09:32:07.714Z,0.80
2019-01-11T09:42:11.306Z,0.80
2019-01-11T09:52:14.894Z,0.87
2019-01-11T10:02:39.093Z,0.60
2019-01-11T10:12:42.774Z,1.60
2019-01-11T10:22:46.377Z,0.93
2019-01-11T10:32:49.957Z,0.80
2019-01-11T10:42:53.538Z,1.43
2019-01-11T10:52:57.118Z,0.70
2019-01-11T11:03:00.702Z,0.60
2019-01-11T11:13:04.273Z,0.50
2019-01-11T11:23:07.870Z,0.57
2019-01-11T11:33:11.659Z,0.50
2019-01-11T11:43:15.462Z,0.30
2019-01-11T11:53:19.049Z,0.80
2019-01-11T12:03:22.643Z,0.37
2019-01-11T12:13:26.218Z,0.60
2019-01-11T12:23:30.562Z,0.70
2019-01-11T12:44:38.435Z,0.30
2019-01-11T12:54:42.230Z,0.43
2019-01-11T13:04:45.987Z,0.50
2019-01-11T13:14:49.823Z,0.80
2019-01-11T13:24:53.477Z,0.73
2019-01-11T13:34:57.193Z,0.50
2019-01-11T13:45:01.100Z,0.70
2019-01-11T13:55:04.775Z,0.70
2019-01-11T14:05:08.391Z,0.30
2019-01-11T14:15:11.970Z,0.43
2019-01-11T14:25:15.535Z,0.97
2019-01-11T14:35:19.113Z,1.00
2019-01-11T14:45:22.679Z,1.00
2019-01-11T14:55:26.257Z,0.90
2019-01-11T15:05:29.857Z,1.50
2019-01-11T15:15:33.455Z,1.07
2019-01-11T15:25:37.838Z,1.43
2019-01-11T15:35:41.417Z,1.30
2019-01-11T15:45:44.997Z,1.23
2019-01-11T15:55:50.042Z,1.17
2019-01-11T16:06:19.190Z,1.30
2019-01-11T16:16:36.239Z,1.47
2019-01-11T16:26:39.822Z,1.57
2019-01-11T16:36:43.435Z,1.60
2019-01-11T16:46:47.078Z,2.03
2019-01-11T16:56:51.317Z,1.50
2019-01-11T17:06:55.126Z,1.47
2019-01-11T17:16:58.754Z,1.23
2019-01-11T17:27:02.338Z,1.83
2019-01-11T17:37:05.924Z,1.30
2019-01-11T17:47:15.912Z,1.73
2019-01-11T17:57:19.550Z,1.90
2019-01-11T18:07:23.118Z,1.53
2019-01-11T18:17:26.691Z,1.70
2019-01-11T18:27:30.275Z,2.20
2019-01-11T18:37:41.735Z,2.07
2019-01-11T18:47:45.322Z,1.80
2019-01-11T18:57:48.955Z,2.00
2019-01-11T19:07:52.762Z,1.50
2019-01-11T19:17:56.342Z,1.60
2019-01-11T19:28:00.127Z,1.40
2019-01-11T19:38:03.694Z,1.73
2019-01-11T19:48:07.366Z,1.93
2019-01-11T19:58:10.938Z,2.33
2019-01-11T20:08:14.509Z,2.67
2019-01-11T20:18:18.178Z,1.93
2019-01-11T20:28:21.743Z,1.30
2019-01-11T20:38:25.405Z,1.40
2019-01-11T20:48:28.983Z,1.17
2019-01-11T20:58:32.563Z,1.23
2019-01-11T21:08:36.131Z,1.47
2019-01-11T21:18:39.740Z,1.60
2019-01-11T21:28:43.389Z,1.63
2019-01-11T21:38:46.947Z,0.80
2019-01-11T21:48:50.674Z,1.80
2019-01-11T21:58:54.251Z,1.00
2019-01-11T22:08:57.807Z,1.50
2019-01-11T22:19:01.379Z,1.20
2019-01-11T22:29:04.943Z,1.30
2019-01-11T22:39:08.718Z,1.30
2019-01-11T22:49:12.294Z,1.70
2019-01-11T22:59:17.982Z,1.40
2019-01-11T23:09:24.318Z,1.20
2019-01-11T23:19:28.057Z,1.10
2019-01-11T23:29:31.689Z,1.30
2019-01-11T23:39:35.258Z,1.17
2019-01-11T23:49:38.825Z,1.50
2019-01-11T23:59:42.662Z,0.90
